Thursday, August 16, 2018, 9:59 AM EDT
Back to Local

KMVL, Morrisville Stowe State Airport

Location: Morrisville, VT, United States Lat: 44.533
Local Time: 9:59 AM EDT (13:59 GMT) Lon: -72.617
Time Zone: US/Eastern Elev: 731 ft

Show me the last for .
Show Decoded

2018-08-16 08:54 METAR KMVL 161254Z AUTO 25003KT 10SM CLR 19/19 A3003 RMK AO2 SLP169 T01940189 =
2018-08-16 08:39 METAR KMVL 161239Z AUTO 35005KT 10SM SCT010 21/19 A3003 RMK AO2 T02060189 =
2018-08-16 08:16 METAR KMVL 161216Z AUTO 00000KT 10SM BKN011 BKN045 19/19 A3003 RMK AO2 T01890189
                 =
2018-08-16 07:54 METAR KMVL 161154Z AUTO 00000KT 10SM SCT012 BKN046 19/18 A3002 RMK AO2 SLP166
                 60009 70108 T01890183 10200 20183 53016 =
2018-08-16 06:54 METAR KMVL 161054Z AUTO 00000KT 9SM FEW037 SCT043 OVC050 19/19 A3001 RMK AO2
                 SLP159 T01890189 =
2018-08-16 05:54 METAR KMVL 160954Z AUTO 00000KT 8SM OVC039 18/18 A2999 RMK AO2 RAE13 SLP154
                 P0001 T01830183 =
2018-08-16 04:54 METAR KMVL 160854Z AUTO 22003KT 8SM -RA FEW024 BKN045 OVC055 18/18 A2998 RMK AO2
                 RAB07 SLP148 P0006 60008 T01830183 53008 =
2018-08-16 04:18 METAR KMVL 160818Z AUTO 21003KT 4SM -RA BR FEW008 SCT030 OVC036 19/19 A2997 RMK
                 AO2 RAB07 P0002 T01890189 =
2018-08-16 04:03 METAR KMVL 160803Z AUTO 00000KT 6SM BR SCT008 BKN029 OVC046 19/19 A2996 RMK AO2
                 LTG DSNT W T01940194 =
2018-08-16 03:54 METAR KMVL 160754Z AUTO 00000KT 7SM BKN008 BKN027 OVC048 19/19 A2995 RMK AO2
                 RAB08E39 SLP140 P0002 T01940194 =
2018-08-16 03:27 METAR KMVL 160727Z AUTO 00000KT 5SM -RA BR FEW003 BKN033 OVC050 19/19 A2996 RMK
                 AO2 RAB08 P0002 T01940194 =
2018-08-16 02:54 METAR KMVL 160654Z AUTO 16003KT 10SM OVC032 19/19 A2995 RMK AO2 RAE0555 SLP139
                 P0000 T01940194 =
2018-08-16 01:54 METAR KMVL 160554Z AUTO 00000KT 9SM -RA OVC034 19/19 A2995 RMK AO2 RAB46 SLP140
                 P0000 60048 T01940194 10194 20194 50003 =
2018-08-16 00:54 METAR KMVL 160454Z AUTO 00000KT 10SM OVC036 19/19 A2996 RMK AO2 SLP141 T01940194
                 402830161 =
2018-08-15 23:54 METAR KMVL 160354Z AUTO 00000KT 10SM BKN036 BKN050 OVC095 19/19 A2995 RMK AO2
                 RAB0259E14 SLP141 P0001 T01940194 =
2018-08-15 22:54 METAR KMVL 160254Z AUTO 18003KT 10SM OVC030 19/19 A2994 RMK AO2 LTG DSNT SE
                 RAB0155E44 SLP138 P0003 60047 T01940194 50008 =
2018-08-15 22:39 METAR KMVL 160239Z AUTO 19004KT 10SM -RA SCT025 OVC032 19/19 A2994 RMK AO2 LTG
                 DSNT SE RAB0155 P0003 T01940194 =
2018-08-15 22:26 METAR KMVL 160226Z AUTO 00000KT 10SM VCTS -RA OVC026 19/19 A2995 RMK AO2 LTG
                 DSNT SE RAB0155 P0003 T01940194 =
2018-08-15 22:14 METAR KMVL 160214Z AUTO 20005KT 8SM -RA OVC028 19/19 A2994 RMK AO2 LTG DSNT SE
                 AND S RAB0155 P0002 T01940194 =
2018-08-15 21:54 METAR KMVL 160154Z AUTO 20006KT 10SM VCTS FEW004 FEW021 OVC027 19/19 A2995 RMK
                 AO2 LTG DSNT SE-SW RAE41 TSB06E21B31E48 SLP140 P0024 T01940194 =
2018-08-15 21:41 METAR KMVL 160141Z AUTO 20006KT 10SM TS FEW004 BKN027 OVC046 19/19 A2995 RMK AO2
                 LTG DSNT SE-W RAE41 TSB06E21B31 P0024 T01940194 =
2018-08-15 21:31 METAR KMVL 160131Z AUTO 00000KT 2 1/2SM +TSRA BR FEW005 BKN028 OVC042 19/19
                 A2995 RMK AO2 VIS 1 1/4V5 LTG DSNT ALQDS TSB06E21B31 P0024 T01940194 =
2018-08-15 21:27 METAR KMVL 160127Z AUTO VRB03KT 4SM VCTS RA BR FEW021 BKN032 OVC049 19/19 A2995
                 RMK AO2 LTG DSNT ALQDS TSB06E21 P0020 T01940194 =
2018-08-15 21:12 METAR KMVL 160112Z AUTO 20007KT 4SM +TSRA BR SCT031 OVC043 19/19 A2993 RMK AO2
                 LTG DSNT ALQDS TSB06 P0012 T01940194 =
2018-08-15 20:54 METAR KMVL 160054Z AUTO 21005KT 10SM VCTS -RA FEW032 BKN045 OVC055 19/19 A2994
                 RMK AO2 LTG DSNT W SLP136 P0020 T01940194 =
2018-08-15 20:40 METAR KMVL 160040Z AUTO 22006KT 3SM +RA BR SCT036 BKN049 OVC060 19/19 A2994 RMK
                 AO2 LTG DSNT E AND SW P0019 T01940194 =
2018-08-15 20:07 METAR KMVL 160007Z AUTO 21005KT 6SM VCTS +RA BR FEW030 BKN035 OVC060 19/19 A2992
                 RMK AO2 LTG DSNT SE AND S P0005 T01940194 =
2018-08-15 20:03 METAR KMVL 160003Z AUTO 19005KT 3SM -RA BR BKN029 BKN037 OVC060 19/19 A2992 RMK
                 AO2 LTG DSNT SE AND S P0003 T01940194 =
2018-08-15 19:54 METAR KMVL 152354Z AUTO VRB06KT 1 1/2SM +RA BR SCT016 BKN032 OVC038 19/19 A2992
                 RMK AO2 LTG DSNT SE AND S RAB15 TSB10E31 SLP131 P0048 60048 T01940194 10283
                 20194 50020 =
2018-08-15 19:49 METAR KMVL 152349Z AUTO 19008KT 160V220 5SM VCTS RA BR BKN032 OVC040 20/19 A2992
                 RMK AO2 LTG DSNT SE AND S RAB15 TSB10E31 P0021 =
2018-08-15 19:36 METAR KMVL 152336Z AUTO 24003KT 2 1/2SM VCTS RA BR SCT032 BKN042 OVC065 21/19
                 A2992 RMK AO2 VIS 1 1/4V5 LTG DSNT SE RAB15 TSB10E31 P0011 T02110189 =
2018-08-15 19:16 METAR KMVL 152316Z AUTO 33007KT 10SM -TSRA BKN045 OVC085 24/20 A2989 RMK AO2 LTG
                 DSNT S-W RAB15 TSB10 P0000 T02390200 =
2018-08-15 19:04 METAR KMVL 152304Z AUTO 34008KT 10SM VCTS OVC046 24/20 A2989 RMK AO2 LTG DSNT
                 S-W T02440200 =
2018-08-15 18:54 METAR KMVL 152254Z AUTO 35005KT 10SM OVC046 26/19 A2987 RMK AO2 LTG DSNT SW AND
                 W SLP114 T02560194 =
2018-08-15 17:54 METAR KMVL 152154Z AUTO 34005KT 10SM SCT049 BKN060 27/19 A2986 RMK AO2 SLP109
                 T02670189 =
2018-08-15 16:54 METAR KMVL 152054Z AUTO 32004KT 10SM CLR 28/18 A2986 RMK AO2 SLP109 T02780183
                 58002 =
2018-08-15 15:54 METAR KMVL 151954Z AUTO 34006KT 10SM SCT031 28/21 A2987 RMK AO2 SLP111 T02780206
                 =
2018-08-15 14:54 METAR KMVL 151854Z AUTO 35007KT 10SM FEW037 BKN060 BKN070 27/19 A2987 RMK AO2
                 SLP112 T02670189 =
2018-08-15 13:54 METAR KMVL 151754Z AUTO 33009KT 10SM CLR 28/17 A2987 RMK AO2 SLP111 60003
                 T02830172 10283 20183 56004 =
2018-08-15 12:54 METAR KMVL 151654Z AUTO VRB03KT 10SM FEW030 28/20 A2987 RMK AO2 SLP112 T02830200
                 =
2018-08-15 11:54 METAR KMVL 151554Z AUTO VRB03KT 10SM FEW060 26/20 A2987 RMK AO2 SLP113 T02610200
                 =
2018-08-15 10:54 METAR KMVL 151454Z AUTO VRB03KT 10SM CLR 24/21 A2988 RMK AO2 SLP116 60003
                 T02390206 50006 =
2018-08-15 10:14 METAR KMVL 151414Z AUTO 00000KT 10SM FEW005 SCT027 SCT080 21/20 A2988 RMK AO2
                 T02110200 =

Support USWX by starting your Amazon purchase here.